createdAt,value
2023-11-19T00:00:14.055Z,96.80
2023-11-19T00:02:42.749Z,96.70
2023-11-19T00:05:10.734Z,96.70
2023-11-19T00:07:38.294Z,96.70
2023-11-19T00:10:08.222Z,96.70
2023-11-19T00:12:35.355Z,96.70
2023-11-19T00:15:02.712Z,96.70
2023-11-19T00:17:29.855Z,96.70
2023-11-19T00:19:56.951Z,96.60
2023-11-19T00:22:24.330Z,96.60
2023-11-19T00:24:51.577Z,96.60
2023-11-19T00:27:18.694Z,96.60
2023-11-19T00:29:46.318Z,96.60
2023-11-19T00:32:13.388Z,96.50
2023-11-19T00:34:40.450Z,96.50
2023-11-19T00:37:08.019Z,96.80
2023-11-19T00:39:35.134Z,96.50
2023-11-19T00:42:02.128Z,96.50
2023-11-19T00:44:29.084Z,96.50
2023-11-19T00:46:56.118Z,96.50
2023-11-19T00:49:23.230Z,96.50
2023-11-19T00:51:50.596Z,96.50
2023-11-19T00:54:21.138Z,96.50
2023-11-19T00:56:48.365Z,96.50
2023-11-19T00:59:15.359Z,96.40
2023-11-19T01:01:42.928Z,96.40
2023-11-19T01:04:10.230Z,96.40
2023-11-19T01:09:16.191Z,96.20
2023-11-19T01:11:44.082Z,96.30
2023-11-19T01:14:11.133Z,96.30
2023-11-19T01:16:38.258Z,96.30
2023-11-19T01:19:15.293Z,96.30
2023-11-19T01:21:45.091Z,96.20
2023-11-19T01:24:14.328Z,96.20
2023-11-19T01:26:46.434Z,96.10
2023-11-19T01:29:17.668Z,96.10
2023-11-19T01:31:52.471Z,95.90
2023-11-19T01:34:20.354Z,95.70
2023-11-19T01:36:49.992Z,95.60
2023-11-19T01:39:17.821Z,95.50
2023-11-19T01:41:45.219Z,95.30
2023-11-19T01:44:15.074Z,95.20
2023-11-19T01:46:44.997Z,95.00
2023-11-19T01:49:14.719Z,94.90
2023-11-19T01:51:42.565Z,94.90
2023-11-19T01:54:10.087Z,94.70
2023-11-19T01:56:41.756Z,94.50
2023-11-19T01:59:12.464Z,94.40
2023-11-19T02:01:41.403Z,94.30
2023-11-19T02:04:10.163Z,94.10
2023-11-19T02:06:41.886Z,94.10
2023-11-19T02:09:10.709Z,94.10
2023-11-19T02:11:38.544Z,94.40
2023-11-19T02:14:05.675Z,94.60
2023-11-19T02:16:32.805Z,94.80
2023-11-19T02:19:00.308Z,94.80
2023-11-19T02:21:27.444Z,94.80
2023-11-19T02:23:54.861Z,94.90
2023-11-19T02:26:37.323Z,95.00
2023-11-19T02:29:07.424Z,95.10
2023-11-19T02:31:36.373Z,95.00
2023-11-19T02:34:03.841Z,95.00
2023-11-19T02:37:07.978Z,95.20
2023-11-19T02:39:35.479Z,95.20
2023-11-19T02:42:02.482Z,95.20
2023-11-19T02:44:31.561Z,95.30
2023-11-19T02:47:00.642Z,95.30
2023-11-19T02:49:27.724Z,95.40
2023-11-19T02:51:54.721Z,95.50
2023-11-19T02:54:28.021Z,95.40
2023-11-19T02:57:00.720Z,95.80
2023-11-19T02:59:39.997Z,95.50
2023-11-19T03:02:13.445Z,95.60
2023-11-19T03:04:45.143Z,95.60
2023-11-19T03:07:13.203Z,95.60
2023-11-19T03:09:41.855Z,95.60
2023-11-19T03:12:09.307Z,96.00
2023-11-19T03:14:36.609Z,95.70
2023-11-19T03:17:04.830Z,95.60
2023-11-19T03:19:32.218Z,95.70
2023-11-19T03:22:00.811Z,95.70
2023-11-19T03:24:27.972Z,95.70
2023-11-19T03:26:55.032Z,95.80
2023-11-19T03:29:22.078Z,95.70
2023-11-19T03:31:49.348Z,95.70
2023-11-19T03:34:17.446Z,95.70
2023-11-19T03:36:44.483Z,95.80
2023-11-19T03:39:11.644Z,95.80
2023-11-19T03:41:42.696Z,95.80
2023-11-19T03:44:09.925Z,95.80
2023-11-19T03:46:37.502Z,95.90
2023-11-19T03:49:05.844Z,95.90
2023-11-19T03:51:36.002Z,95.90
2023-11-19T03:54:03.183Z,95.90
2023-11-19T03:56:32.267Z,95.90
2023-11-19T03:58:59.235Z,95.90
2023-11-19T04:01:26.285Z,95.90
2023-11-19T04:03:53.367Z,95.90
2023-11-19T04:06:20.360Z,95.90
2023-11-19T04:08:47.396Z,95.90
2023-11-19T04:11:14.510Z,96.00
2023-11-19T04:13:41.556Z,95.90
2023-11-19T04:16:09.038Z,95.90
2023-11-19T04:18:36.072Z,95.90
2023-11-19T04:21:03.402Z,95.90
2023-11-19T04:23:30.388Z,95.90
2023-11-19T04:26:10.740Z,96.00
2023-11-19T04:28:38.450Z,96.00
2023-11-19T04:31:07.227Z,96.00
2023-11-19T04:33:34.377Z,96.00
2023-11-19T04:36:01.434Z,96.10
2023-11-19T04:38:28.445Z,96.10
2023-11-19T04:40:55.590Z,96.00
2023-11-19T04:43:22.681Z,96.00
2023-11-19T04:45:49.747Z,96.00
2023-11-19T04:48:17.006Z,96.00
2023-11-19T04:50:43.968Z,96.10
2023-11-19T04:53:11.367Z,96.10
2023-11-19T04:55:38.378Z,96.10
2023-11-19T04:58:05.495Z,96.00
2023-11-19T05:00:32.465Z,96.00
2023-11-19T05:02:59.816Z,96.00
2023-11-19T05:05:26.914Z,96.00
2023-11-19T05:07:53.980Z,96.00
2023-11-19T05:10:21.167Z,96.00
2023-11-19T05:12:48.216Z,96.00
2023-11-19T05:15:15.391Z,96.00
2023-11-19T05:17:42.553Z,96.00
2023-11-19T05:20:14.884Z,96.00
2023-11-19T05:22:42.964Z,96.00
2023-11-19T05:25:11.688Z,96.00
2023-11-19T05:27:39.169Z,96.00
2023-11-19T05:30:12.064Z,96.00
2023-11-19T05:32:39.411Z,96.00
2023-11-19T05:35:06.926Z,95.90
2023-11-19T05:37:36.178Z,96.00
2023-11-19T05:40:05.197Z,96.00
2023-11-19T05:42:32.256Z,95.90
2023-11-19T05:44:59.438Z,95.90
2023-11-19T05:47:26.574Z,95.90
2023-11-19T05:49:53.754Z,95.90
2023-11-19T05:52:23.082Z,95.90
2023-11-19T05:54:52.971Z,95.90
2023-11-19T05:57:24.949Z,95.90
2023-11-19T05:59:52.004Z,95.90
2023-11-19T06:02:19.052Z,95.90
2023-11-19T06:04:48.953Z,95.90
2023-11-19T06:07:16.755Z,95.90
2023-11-19T06:09:44.012Z,95.90
2023-11-19T06:12:10.967Z,95.90
2023-11-19T06:14:37.946Z,95.90
2023-11-19T06:17:06.196Z,96.00
2023-11-19T06:19:33.629Z,95.90
2023-11-19T06:22:00.671Z,95.90
2023-11-19T06:24:27.814Z,95.90
2023-11-19T06:26:54.980Z,95.80
2023-11-19T06:29:22.148Z,95.80
2023-11-19T06:31:50.200Z,95.80
2023-11-19T06:34:17.295Z,95.70
2023-11-19T06:36:46.994Z,95.60
2023-11-19T06:39:14.104Z,95.70
2023-11-19T06:41:45.390Z,95.70
2023-11-19T06:44:12.355Z,95.60
2023-11-19T06:46:39.411Z,95.50
2023-11-19T06:49:06.680Z,95.40
2023-11-19T06:51:33.667Z,95.30
2023-11-19T06:54:00.789Z,95.20
2023-11-19T06:56:27.992Z,95.20
2023-11-19T06:58:55.517Z,95.20
2023-11-19T07:01:22.587Z,95.20
2023-11-19T07:03:50.360Z,95.20
2023-11-19T07:06:17.853Z,95.10
2023-11-19T07:08:48.192Z,95.10
2023-11-19T07:11:17.289Z,95.00
2023-11-19T07:13:44.484Z,94.90
2023-11-19T07:16:11.988Z,94.90
2023-11-19T07:18:39.123Z,94.90
2023-11-19T07:21:06.371Z,94.90
2023-11-19T07:23:36.390Z,94.90
2023-11-19T07:26:08.062Z,94.90
2023-11-19T07:28:35.878Z,94.80
2023-11-19T07:31:03.214Z,94.70
2023-11-19T07:33:30.386Z,94.70
2023-11-19T07:35:57.427Z,94.60
2023-11-19T07:38:24.405Z,94.50
2023-11-19T07:43:24.250Z,94.40
2023-11-19T07:45:51.292Z,94.40
2023-11-19T07:48:19.314Z,94.40
2023-11-19T07:50:46.463Z,94.30
2023-11-19T07:53:14.294Z,94.20
2023-11-19T07:55:45.055Z,94.10
2023-11-19T07:58:12.785Z,94.00
2023-11-19T08:00:39.959Z,94.00
2023-11-19T08:03:09.284Z,94.00
2023-11-19T08:05:37.321Z,94.00
2023-11-19T08:08:04.526Z,94.00
2023-11-19T08:10:31.763Z,93.90
2023-11-19T08:12:58.851Z,93.80
2023-11-19T08:17:55.866Z,93.70
2023-11-19T08:20:23.418Z,93.60
2023-11-19T08:22:50.819Z,93.60
2023-11-19T08:25:17.904Z,93.60
2023-11-19T08:27:44.880Z,93.50
2023-11-19T08:30:12.539Z,93.50
2023-11-19T08:32:39.841Z,93.50
2023-11-19T08:35:07.468Z,93.40
2023-11-19T08:37:37.684Z,93.40
2023-11-19T08:40:06.084Z,93.30
2023-11-19T08:42:33.104Z,93.20
2023-11-19T08:45:00.256Z,93.10
2023-11-19T08:47:27.425Z,93.10
2023-11-19T08:52:25.383Z,92.90
2023-11-19T08:54:52.395Z,92.70
2023-11-19T08:57:19.521Z,92.70
2023-11-19T08:59:47.378Z,92.60
2023-11-19T09:02:16.552Z,92.60
2023-11-19T09:04:43.871Z,92.60
2023-11-19T09:07:11.092Z,92.60
2023-11-19T09:09:38.247Z,92.50
2023-11-19T09:12:05.417Z,92.40
2023-11-19T09:14:32.656Z,92.30
2023-11-19T09:17:00.410Z,92.20
2023-11-19T09:19:28.221Z,92.10
2023-11-19T09:21:55.278Z,92.00
2023-11-19T09:24:25.418Z,91.90
2023-11-19T09:26:54.746Z,91.80
2023-11-19T09:29:22.754Z,91.70
2023-11-19T09:31:50.433Z,91.70
2023-11-19T09:34:18.749Z,91.70
2023-11-19T09:36:46.573Z,91.80
2023-11-19T09:39:16.771Z,91.80
2023-11-19T09:41:43.873Z,91.80
2023-11-19T09:44:12.972Z,91.70
2023-11-19T09:46:43.212Z,91.60
2023-11-19T09:49:11.235Z,91.50
2023-11-19T09:51:38.851Z,91.60
2023-11-19T09:54:06.186Z,91.50
2023-11-19T09:56:49.370Z,91.50
2023-11-19T09:59:17.408Z,91.50
2023-11-19T10:01:49.934Z,91.40
2023-11-19T10:04:24.177Z,91.30
2023-11-19T10:06:58.490Z,91.20
2023-11-19T10:09:25.784Z,91.50
2023-11-19T10:11:52.799Z,91.20
2023-11-19T10:14:24.123Z,91.20
2023-11-19T10:16:51.334Z,91.10
2023-11-19T10:19:22.107Z,91.10
2023-11-19T10:21:49.669Z,90.90
2023-11-19T10:26:59.827Z,90.30
2023-11-19T10:29:27.977Z,90.40
2023-11-19T10:32:23.854Z,90.00
2023-11-19T10:34:48.096Z,90.00
2023-11-19T10:37:33.655Z,90.10
2023-11-19T10:40:01.477Z,89.30
2023-11-19T10:42:28.689Z,89.00
2023-11-19T10:44:55.837Z,88.80
2023-11-19T10:49:55.048Z,88.70
2023-11-19T10:52:23.143Z,88.70
2023-11-19T10:54:54.960Z,88.60
2023-11-19T10:57:23.258Z,88.60
2023-11-19T10:59:55.687Z,88.80
2023-11-19T11:02:25.861Z,88.80
2023-11-19T11:04:53.693Z,88.50
2023-11-19T11:07:32.402Z,88.00
2023-11-19T11:10:07.414Z,87.60
2023-11-19T11:12:38.302Z,87.10
2023-11-19T11:15:07.072Z,86.30
2023-11-19T11:17:35.511Z,85.80
2023-11-19T11:20:04.237Z,85.50
2023-11-19T11:22:40.365Z,85.00
2023-11-19T11:25:38.584Z,84.20
2023-11-19T11:28:58.660Z,83.30
2023-11-19T11:31:48.197Z,82.60
2023-11-19T11:34:38.576Z,82.40
2023-11-19T11:37:30.357Z,82.60
2023-11-19T11:40:00.616Z,82.70
2023-11-19T11:42:27.921Z,82.90
2023-11-19T11:45:06.127Z,83.30
2023-11-19T11:47:46.385Z,83.60
2023-11-19T11:50:15.044Z,83.70
2023-11-19T11:52:58.136Z,83.80
2023-11-19T11:55:25.544Z,83.90
2023-11-19T11:57:52.838Z,84.00
2023-11-19T12:00:27.772Z,84.20
2023-11-19T12:03:02.855Z,84.20
2023-11-19T12:05:31.152Z,84.00
2023-11-19T12:08:08.531Z,84.00
2023-11-19T12:10:45.525Z,83.90
2023-11-19T12:13:15.201Z,83.80
2023-11-19T12:16:08.804Z,83.80
2023-11-19T12:18:36.779Z,83.70
2023-11-19T12:21:04.000Z,83.30
2023-11-19T12:23:31.646Z,83.90
2023-11-19T12:25:59.628Z,82.70
2023-11-19T12:28:28.792Z,82.20
2023-11-19T12:31:10.392Z,82.20
2023-11-19T12:33:39.172Z,82.40
2023-11-19T12:36:07.130Z,82.40
2023-11-19T12:38:34.430Z,82.20
2023-11-19T12:41:06.091Z,81.60
2023-11-19T12:43:33.193Z,81.90
2023-11-19T12:46:00.299Z,82.10
2023-11-19T12:48:28.226Z,82.10
2023-11-19T12:51:00.679Z,81.80
2023-11-19T12:53:28.548Z,81.50
2023-11-19T12:56:12.488Z,81.70
2023-11-19T12:58:40.371Z,81.80
2023-11-19T13:01:08.581Z,82.00
2023-11-19T13:03:37.646Z,82.00
2023-11-19T13:06:05.732Z,81.70
2023-11-19T13:08:42.576Z,81.40
2023-11-19T13:11:10.275Z,80.80
2023-11-19T13:13:57.626Z,80.40
2023-11-19T13:16:25.335Z,80.30
2023-11-19T13:18:53.188Z,80.40
2023-11-19T13:21:20.664Z,80.60
2023-11-19T13:23:48.479Z,80.50
2023-11-19T13:26:15.811Z,80.20
2023-11-19T13:28:43.208Z,80.40
2023-11-19T13:31:11.975Z,80.60
2023-11-19T13:33:39.445Z,80.80
2023-11-19T13:36:14.394Z,81.10
2023-11-19T13:38:48.556Z,81.30
2023-11-19T13:41:15.827Z,81.40
2023-11-19T13:43:43.508Z,81.50
2023-11-19T13:46:12.092Z,81.70
2023-11-19T13:48:39.861Z,81.80
2023-11-19T13:51:07.484Z,81.80
2023-11-19T13:53:51.885Z,81.80
2023-11-19T13:56:19.503Z,81.70
2023-11-19T13:58:46.698Z,81.60
2023-11-19T14:01:15.895Z,81.50
2023-11-19T14:03:43.615Z,81.50
2023-11-19T14:06:11.935Z,81.30
2023-11-19T14:08:39.234Z,81.20
2023-11-19T14:11:08.228Z,81.10
2023-11-19T14:13:36.176Z,80.80
2023-11-19T14:16:04.766Z,80.70
2023-11-19T14:18:36.352Z,80.60
2023-11-19T14:21:04.735Z,80.30
2023-11-19T14:23:32.157Z,80.00
2023-11-19T14:25:59.494Z,79.90
2023-11-19T14:28:27.468Z,79.70
2023-11-19T14:30:58.711Z,79.60
2023-11-19T14:33:25.961Z,79.40
2023-11-19T14:35:53.330Z,79.30
2023-11-19T14:38:20.746Z,79.30
2023-11-19T14:40:49.405Z,79.30
2023-11-19T14:43:18.791Z,79.30
2023-11-19T14:45:50.065Z,79.40
2023-11-19T14:48:19.469Z,79.40
2023-11-19T14:50:47.076Z,79.20
2023-11-19T14:53:14.157Z,78.90
2023-11-19T14:55:41.592Z,78.60
2023-11-19T14:58:10.975Z,78.50
2023-11-19T15:00:39.834Z,78.60
2023-11-19T15:03:07.964Z,78.60
2023-11-19T15:05:35.698Z,78.70
2023-11-19T15:08:04.382Z,79.00
2023-11-19T15:10:31.612Z,79.20
2023-11-19T15:13:01.961Z,79.50
2023-11-19T15:18:02.075Z,80.00
2023-11-19T15:20:31.170Z,80.20
2023-11-19T15:22:59.861Z,80.40
2023-11-19T15:25:27.276Z,80.50
2023-11-19T15:27:55.660Z,80.60
2023-11-19T15:30:23.355Z,80.70
2023-11-19T15:32:50.474Z,80.80
2023-11-19T15:35:18.601Z,80.90
2023-11-19T15:37:46.701Z,80.70
2023-11-19T15:40:14.658Z,80.70
2023-11-19T15:42:48.335Z,80.70
2023-11-19T15:45:17.885Z,81.00
2023-11-19T15:47:45.119Z,81.10
2023-11-19T15:50:13.903Z,81.30
2023-11-19T15:52:44.481Z,81.30
2023-11-19T15:55:13.072Z,81.40
2023-11-19T15:57:40.144Z,81.60
2023-11-19T16:00:12.434Z,81.80
2023-11-19T16:02:40.343Z,82.00
2023-11-19T16:05:12.753Z,82.40
2023-11-19T16:07:42.038Z,82.80
2023-11-19T16:10:11.115Z,82.80
2023-11-19T16:12:38.057Z,82.90
2023-11-19T16:15:05.514Z,83.10
2023-11-19T16:17:32.537Z,83.30
2023-11-19T16:20:00.433Z,83.30
2023-11-19T16:22:27.721Z,83.40
2023-11-19T16:24:55.684Z,83.60
2023-11-19T16:29:53.433Z,83.80
2023-11-19T16:32:20.340Z,83.90
2023-11-19T16:34:48.951Z,84.00
2023-11-19T16:37:18.041Z,84.20
2023-11-19T16:39:45.356Z,84.20
2023-11-19T16:42:12.580Z,84.20
2023-11-19T16:44:39.868Z,84.10
2023-11-19T16:47:08.410Z,84.20
2023-11-19T16:49:36.119Z,84.10
2023-11-19T16:52:05.645Z,84.00
2023-11-19T16:54:33.685Z,84.00
2023-11-19T16:57:00.896Z,84.10
2023-11-19T16:59:28.295Z,84.20
2023-11-19T17:01:56.147Z,84.30
2023-11-19T17:04:23.552Z,84.40
2023-11-19T17:06:51.162Z,84.40
2023-11-19T17:09:18.331Z,84.40
2023-11-19T17:11:46.462Z,84.30
2023-11-19T17:14:14.420Z,84.30
2023-11-19T17:16:41.821Z,84.40
2023-11-19T17:19:09.683Z,84.30
2023-11-19T17:21:36.855Z,84.40
2023-11-19T17:24:04.414Z,84.40
2023-11-19T17:29:03.221Z,85.40
2023-11-19T17:31:34.911Z,84.70
2023-11-19T17:34:02.237Z,84.80
2023-11-19T17:36:29.394Z,84.90
2023-11-19T17:38:57.246Z,85.00
2023-11-19T17:41:24.414Z,85.10
2023-11-19T17:43:51.489Z,85.20
2023-11-19T17:46:18.790Z,85.20
2023-11-19T17:48:45.847Z,85.10
2023-11-19T17:51:13.969Z,85.10
2023-11-19T17:53:40.979Z,85.30
2023-11-19T17:56:08.272Z,85.50
2023-11-19T17:58:36.772Z,85.60
2023-11-19T18:01:06.822Z,85.80
2023-11-19T18:03:33.950Z,85.80
2023-11-19T18:06:01.065Z,85.80
2023-11-19T18:08:28.036Z,85.90
2023-11-19T18:10:55.042Z,86.00
2023-11-19T18:13:22.674Z,86.10
2023-11-19T18:15:49.624Z,86.20
2023-11-19T18:18:17.019Z,86.20
2023-11-19T18:20:44.197Z,86.30
2023-11-19T18:23:11.813Z,86.10
2023-11-19T18:25:38.927Z,86.20
2023-11-19T18:28:07.382Z,86.30
2023-11-19T18:30:34.939Z,86.30
2023-11-19T18:33:02.667Z,86.40
2023-11-19T18:35:29.776Z,86.40
2023-11-19T18:37:56.792Z,86.40
2023-11-19T18:40:24.629Z,86.50
2023-11-19T18:42:54.108Z,86.50
2023-11-19T18:45:23.607Z,86.60
2023-11-19T18:47:51.807Z,86.60
2023-11-19T18:50:19.313Z,86.40
2023-11-19T18:52:46.491Z,86.40
2023-11-19T18:55:13.621Z,86.30
2023-11-19T18:57:40.903Z,86.20
2023-11-19T19:00:11.263Z,86.30
2023-11-19T19:03:02.759Z,86.20
2023-11-19T19:05:29.114Z,86.20
2023-11-19T19:07:57.804Z,86.20
2023-11-19T19:10:25.378Z,86.20
2023-11-19T19:12:52.445Z,86.20
2023-11-19T19:15:19.782Z,86.20
2023-11-19T19:17:47.023Z,86.20
2023-11-19T19:20:15.474Z,86.30
2023-11-19T19:22:43.973Z,86.40
2023-11-19T19:25:11.139Z,86.60
2023-11-19T19:27:38.247Z,86.50
2023-11-19T19:30:05.759Z,86.60
2023-11-19T19:32:32.844Z,86.60
2023-11-19T19:35:00.134Z,86.60
2023-11-19T19:37:27.171Z,86.70
2023-11-19T19:39:54.625Z,86.50
2023-11-19T19:42:24.716Z,86.20
2023-11-19T19:44:51.662Z,86.20
2023-11-19T19:47:19.454Z,86.20
2023-11-19T19:49:46.808Z,86.20
2023-11-19T19:52:14.249Z,86.00
2023-11-19T19:54:42.685Z,85.90
2023-11-19T19:57:09.833Z,85.70
2023-11-19T19:59:36.835Z,85.70
2023-11-19T20:02:04.052Z,85.90
2023-11-19T20:04:31.041Z,85.80
2023-11-19T20:06:58.054Z,85.90
2023-11-19T20:09:25.362Z,85.80
2023-11-19T20:11:54.618Z,85.80
2023-11-19T20:14:24.705Z,85.90
2023-11-19T20:17:11.254Z,85.80
2023-11-19T20:19:41.739Z,85.60
2023-11-19T20:22:08.850Z,85.40
2023-11-19T20:24:36.110Z,85.30
2023-11-19T20:27:03.253Z,85.30
2023-11-19T20:29:30.298Z,85.30
2023-11-19T20:31:57.271Z,85.30
2023-11-19T20:34:24.831Z,85.30
2023-11-19T20:36:52.029Z,85.20
2023-11-19T20:39:19.869Z,85.30
2023-11-19T20:41:47.164Z,85.30
2023-11-19T20:44:14.284Z,85.30
2023-11-19T20:46:41.335Z,85.20
2023-11-19T20:49:08.710Z,85.10
2023-11-19T20:51:40.617Z,85.00
2023-11-19T20:54:07.833Z,84.90
2023-11-19T20:56:34.802Z,84.90
2023-11-19T20:59:01.953Z,84.80
2023-11-19T21:01:28.945Z,84.60
2023-11-19T21:03:57.328Z,84.50
2023-11-19T21:06:24.674Z,84.40
2023-11-19T21:08:52.296Z,84.40
2023-11-19T21:11:19.655Z,84.20
2023-11-19T21:13:48.674Z,84.20
2023-11-19T21:16:15.870Z,84.10
2023-11-19T21:18:43.908Z,84.10
2023-11-19T21:21:11.072Z,84.00
2023-11-19T21:23:38.207Z,84.00
2023-11-19T21:26:05.187Z,84.10
2023-11-19T21:28:34.447Z,84.00
2023-11-19T21:31:02.392Z,84.00
2023-11-19T21:33:30.738Z,83.90
2023-11-19T21:35:59.709Z,84.00
2023-11-19T21:38:29.307Z,84.10
2023-11-19T21:40:56.349Z,84.10
2023-11-19T21:43:24.433Z,84.00
2023-11-19T21:45:51.476Z,84.10
2023-11-19T21:48:19.552Z,84.20
2023-11-19T21:50:47.115Z,84.30
2023-11-19T21:53:14.468Z,84.40
2023-11-19T21:55:41.802Z,84.50
2023-11-19T21:58:11.529Z,84.60
2023-11-19T22:00:40.548Z,84.60
2023-11-19T22:03:09.196Z,84.60
2023-11-19T22:05:36.461Z,84.40
2023-11-19T22:10:34.675Z,84.30
2023-11-19T22:13:02.717Z,84.30
2023-11-19T22:15:30.532Z,84.40
2023-11-19T22:17:58.462Z,84.40
2023-11-19T22:20:25.891Z,85.10
2023-11-19T22:22:53.472Z,84.30
2023-11-19T22:25:23.377Z,84.20
2023-11-19T22:27:50.662Z,84.20
2023-11-19T22:30:17.771Z,84.20
2023-11-19T22:32:52.843Z,84.20
2023-11-19T22:35:23.451Z,84.10
2023-11-19T22:37:52.197Z,84.00
2023-11-19T22:40:24.354Z,84.00
2023-11-19T22:42:56.632Z,83.90
2023-11-19T22:45:26.633Z,83.80
2023-11-19T22:47:54.013Z,83.60
2023-11-19T22:50:21.846Z,83.70
2023-11-19T22:52:49.873Z,83.60
2023-11-19T22:55:16.951Z,83.60
2023-11-19T23:00:29.263Z,83.60
2023-11-19T23:02:58.727Z,83.70
2023-11-19T23:05:33.291Z,83.70
2023-11-19T23:08:01.492Z,83.70
2023-11-19T23:10:29.481Z,83.50
2023-11-19T23:13:01.150Z,83.50
2023-11-19T23:15:31.492Z,83.40
2023-11-19T23:18:01.702Z,83.40
2023-11-19T23:20:28.667Z,83.60
2023-11-19T23:22:55.665Z,83.60
2023-11-19T23:25:23.139Z,83.60
2023-11-19T23:27:50.810Z,83.90
2023-11-19T23:30:17.852Z,84.10
2023-11-19T23:32:45.272Z,84.30
2023-11-19T23:35:12.771Z,84.40
2023-11-19T23:37:40.651Z,84.60
2023-11-19T23:40:08.439Z,84.80
2023-11-19T23:42:35.470Z,84.80
2023-11-19T23:45:03.137Z,84.80
2023-11-19T23:47:30.868Z,84.60
2023-11-19T23:49:59.262Z,84.40
2023-11-19T23:52:27.272Z,84.20
2023-11-19T23:54:54.281Z,84.10
2023-11-19T23:57:22.786Z,83.90
2023-11-19T23:59:50.030Z,83.80
